createdAt,value
2023-05-02T00:02:06.123Z,8.10
2023-05-02T00:04:33.094Z,7.60
2023-05-02T00:06:59.935Z,8.00
2023-05-02T00:09:26.731Z,9.35
2023-05-02T00:11:53.487Z,8.43
2023-05-02T00:14:20.465Z,7.72
2023-05-02T00:16:47.651Z,9.07
2023-05-02T00:19:15.058Z,9.25
2023-05-02T00:21:41.943Z,8.27
2023-05-02T00:24:08.780Z,8.57
2023-05-02T00:26:35.645Z,8.88
2023-05-02T00:29:02.439Z,8.75
2023-05-02T00:31:30.360Z,8.57
2023-05-02T00:33:57.294Z,10.13
2023-05-02T00:36:26.570Z,12.38
2023-05-02T00:38:53.633Z,11.60
2023-05-02T00:41:20.478Z,11.32
2023-05-02T00:43:47.264Z,13.20
2023-05-02T00:46:15.403Z,11.88
2023-05-02T00:48:42.874Z,13.68
2023-05-02T00:51:12.274Z,10.35
2023-05-02T00:53:40.195Z,13.32
2023-05-02T00:56:07.579Z,11.95
2023-05-02T00:58:34.907Z,12.25
2023-05-02T01:01:04.480Z,14.48
2023-05-02T01:03:52.122Z,12.48
2023-05-02T01:06:37.195Z,10.98
2023-05-02T01:09:37.758Z,17.77
2023-05-02T01:12:41.890Z,12.80
2023-05-02T01:15:11.464Z,15.57
2023-05-02T01:17:39.805Z,15.35
2023-05-02T01:20:08.861Z,13.57
2023-05-02T01:22:35.675Z,14.10
2023-05-02T01:25:30.444Z,15.85
2023-05-02T01:28:32.318Z,12.73
2023-05-02T01:30:59.200Z,17.25
2023-05-02T01:33:26.286Z,14.60
2023-05-02T01:35:53.488Z,15.07
2023-05-02T01:38:20.381Z,15.30
2023-05-02T01:40:47.413Z,12.98
2023-05-02T01:43:15.466Z,15.35
2023-05-02T01:45:43.919Z,12.38
2023-05-02T01:48:10.825Z,11.18
2023-05-02T01:50:38.188Z,14.73
2023-05-02T01:53:05.526Z,12.18
2023-05-02T01:55:32.329Z,11.45
2023-05-02T01:57:59.234Z,11.32
2023-05-02T02:00:26.486Z,9.80
2023-05-02T02:02:53.390Z,10.63
2023-05-02T02:05:22.116Z,11.13
2023-05-02T02:07:50.400Z,9.27
2023-05-02T02:10:18.246Z,10.88
2023-05-02T02:13:13.452Z,11.13
2023-05-02T02:15:40.328Z,10.82
2023-05-02T02:18:12.616Z,10.43
2023-05-02T02:20:40.643Z,10.47
2023-05-02T02:23:08.685Z,10.13
2023-05-02T02:25:35.565Z,10.05
2023-05-02T02:28:02.398Z,11.25
2023-05-02T02:30:30.942Z,9.82
2023-05-02T02:32:57.859Z,10.48
2023-05-02T02:35:32.225Z,10.00
2023-05-02T02:38:19.201Z,8.98
2023-05-02T02:41:00.190Z,13.25
2023-05-02T02:43:48.337Z,12.15
2023-05-02T02:46:18.162Z,11.23
2023-05-02T02:49:12.341Z,10.35
2023-05-02T02:51:45.960Z,11.93
2023-05-02T02:54:38.549Z,11.50
2023-05-02T02:57:08.042Z,11.98
2023-05-02T02:59:37.324Z,11.45
2023-05-02T03:02:13.053Z,11.20
2023-05-02T03:04:45.215Z,13.57
2023-05-02T03:07:12.551Z,13.73
2023-05-02T03:09:48.888Z,13.02
2023-05-02T03:12:16.287Z,10.25
2023-05-02T03:14:43.604Z,14.05
2023-05-02T03:17:10.814Z,11.55
2023-05-02T03:19:39.381Z,12.60
2023-05-02T03:22:06.279Z,11.75
2023-05-02T03:24:34.819Z,12.40
2023-05-02T03:27:01.888Z,13.25
2023-05-02T03:29:28.876Z,12.77
2023-05-02T03:31:56.165Z,12.45
2023-05-02T03:34:23.158Z,13.68
2023-05-02T03:36:50.519Z,13.18
2023-05-02T03:39:17.418Z,13.68
2023-05-02T03:41:44.305Z,13.30
2023-05-02T03:44:11.359Z,12.73
2023-05-02T03:46:39.692Z,13.38
2023-05-02T03:49:15.479Z,12.60
2023-05-02T03:51:44.463Z,14.05
2023-05-02T03:54:11.300Z,13.50
2023-05-02T03:56:41.296Z,12.95
2023-05-02T03:59:09.830Z,14.70
2023-05-02T04:01:36.805Z,13.05
2023-05-02T04:04:05.342Z,13.30
2023-05-02T04:06:32.683Z,15.30
2023-05-02T04:08:59.860Z,13.20
2023-05-02T04:11:27.631Z,16.17
2023-05-02T04:13:54.506Z,14.43
2023-05-02T04:16:21.841Z,14.95
2023-05-02T04:18:49.107Z,20.65
2023-05-02T04:21:15.959Z,11.80
2023-05-02T04:23:42.765Z,14.02
2023-05-02T04:26:09.483Z,13.68
2023-05-02T04:28:38.690Z,12.90
2023-05-02T04:31:06.048Z,11.20
2023-05-02T04:33:33.148Z,13.13
2023-05-02T04:36:01.377Z,16.88
2023-05-02T04:38:28.928Z,13.30
2023-05-02T04:40:59.321Z,13.23
2023-05-02T04:43:38.173Z,13.32
2023-05-02T04:46:05.274Z,13.38
2023-05-02T04:48:33.979Z,14.27
2023-05-02T04:51:02.266Z,12.55
2023-05-02T04:53:29.862Z,11.60
2023-05-02T04:55:58.769Z,15.63
2023-05-02T04:58:25.577Z,12.82
2023-05-02T05:00:52.407Z,13.48
2023-05-02T05:03:21.650Z,13.38
2023-05-02T05:05:48.457Z,12.93
2023-05-02T05:08:15.620Z,12.50
2023-05-02T05:10:42.757Z,14.48
2023-05-02T05:13:12.412Z,15.07
2023-05-02T05:15:40.270Z,14.82
2023-05-02T05:18:08.898Z,11.90
2023-05-02T05:20:35.868Z,13.25
2023-05-02T05:23:03.950Z,13.93
2023-05-02T05:25:30.787Z,12.38
2023-05-02T05:27:58.458Z,13.30
2023-05-02T05:30:25.693Z,12.88
2023-05-02T05:32:53.424Z,11.73
2023-05-02T05:35:20.622Z,13.50
2023-05-02T05:37:48.742Z,14.32
2023-05-02T05:40:19.632Z,13.20
2023-05-02T05:42:47.194Z,13.63
2023-05-02T05:45:14.113Z,13.93
2023-05-02T05:47:41.031Z,12.73
2023-05-02T05:50:09.583Z,14.50
2023-05-02T05:52:37.548Z,11.90
2023-05-02T05:55:11.836Z,12.23
2023-05-02T05:57:40.148Z,14.05
2023-05-02T06:00:08.275Z,12.60
2023-05-02T06:02:36.728Z,28.98
2023-05-02T06:05:04.715Z,13.60
2023-05-02T06:07:32.820Z,12.77
2023-05-02T06:10:03.167Z,12.18
2023-05-02T06:12:31.223Z,13.68
2023-05-02T06:14:58.995Z,11.10
2023-05-02T06:17:27.123Z,10.60
2023-05-02T06:19:55.609Z,11.00
2023-05-02T06:27:59.445Z,11.35
2023-05-02T06:30:30.249Z,9.70
2023-05-02T06:33:05.412Z,10.70
2023-05-02T06:35:36.355Z,9.35
2023-05-02T06:38:03.163Z,10.50
2023-05-02T06:40:29.957Z,8.65
2023-05-02T06:42:57.952Z,10.70
2023-05-02T06:45:25.568Z,14.18
2023-05-02T06:47:52.938Z,10.80
2023-05-02T06:50:23.070Z,9.85
2023-05-02T06:52:51.435Z,10.63
2023-05-02T06:55:27.021Z,10.65
2023-05-02T07:00:56.108Z,11.15
2023-05-02T07:03:36.733Z,10.55
2023-05-02T07:06:08.221Z,10.77
2023-05-02T07:08:58.152Z,9.85
2023-05-02T07:23:02.872Z,11.65
2023-05-02T07:31:18.945Z,9.32
2023-05-02T07:33:50.361Z,10.38
2023-05-02T07:39:18.001Z,10.73
2023-05-02T07:41:47.807Z,10.15
2023-05-02T07:44:15.693Z,9.75
2023-05-02T07:46:44.423Z,10.40
2023-05-02T07:49:11.941Z,10.63
2023-05-02T07:51:51.957Z,9.05
2023-05-02T08:03:21.315Z,7.47
2023-05-02T08:14:54.840Z,7.47
2023-05-02T08:17:28.210Z,7.72
2023-05-02T08:34:01.457Z,6.20
2023-05-02T08:36:46.470Z,6.20
2023-05-02T08:44:45.580Z,6.13
2023-05-02T09:04:21.138Z,6.10
2023-05-02T09:09:37.556Z,6.63
2023-05-02T09:17:58.757Z,7.25
2023-05-02T09:20:26.440Z,6.50
2023-05-02T09:22:55.495Z,6.78
2023-05-02T09:25:22.701Z,6.35
2023-05-02T09:27:57.680Z,6.82
2023-05-02T09:30:28.608Z,7.97
2023-05-02T09:32:56.949Z,7.07
2023-05-02T09:35:30.388Z,7.63
2023-05-02T09:38:01.764Z,6.70
2023-05-02T09:43:27.918Z,6.95
2023-05-02T09:46:02.049Z,7.50
2023-05-02T09:48:33.417Z,8.65
2023-05-02T09:57:52.014Z,7.47
2023-05-02T10:04:05.781Z,7.43
2023-05-02T10:14:57.782Z,8.55
2023-05-02T10:26:44.087Z,9.10
2023-05-02T10:32:04.519Z,8.93
2023-05-02T10:45:55.015Z,11.38
2023-05-02T10:48:29.166Z,9.07
2023-05-02T10:51:01.532Z,9.88
2023-05-02T10:53:39.101Z,9.38
2023-05-02T11:02:36.285Z,10.52
2023-05-02T11:05:20.367Z,10.52
2023-05-02T11:10:47.713Z,9.88
2023-05-02T11:21:45.768Z,11.65
2023-05-02T11:27:49.364Z,9.75
2023-05-02T11:33:24.820Z,10.50
2023-05-02T11:35:52.123Z,13.15
2023-05-02T11:38:29.910Z,10.68
2023-05-02T11:41:03.024Z,13.48
2023-05-02T11:43:32.706Z,9.55
2023-05-02T11:46:02.186Z,10.88
2023-05-02T11:48:30.699Z,9.60
2023-05-02T11:51:05.725Z,10.95
2023-05-02T11:53:33.708Z,9.88
2023-05-02T11:56:10.080Z,9.63
2023-05-02T11:58:37.844Z,11.10
2023-05-02T12:01:16.408Z,11.35
2023-05-02T12:03:51.379Z,11.70
2023-05-02T12:06:20.192Z,12.07
2023-05-02T12:17:10.292Z,12.13
2023-05-02T12:19:41.210Z,10.65
2023-05-02T12:24:59.319Z,14.73
2023-05-02T12:33:30.893Z,9.43
2023-05-02T12:36:09.614Z,10.27
2023-05-02T12:38:38.960Z,9.27
2023-05-02T12:46:37.599Z,9.20
2023-05-02T12:56:13.183Z,9.85
2023-05-02T12:58:48.895Z,11.82
2023-05-02T13:01:17.932Z,9.05
2023-05-02T13:03:47.820Z,11.25
2023-05-02T13:06:16.173Z,9.55
2023-05-02T13:08:43.772Z,10.23
2023-05-02T13:11:31.714Z,11.50
2023-05-02T13:14:03.128Z,10.25
2023-05-02T13:16:34.037Z,11.73
2023-05-02T13:19:02.807Z,11.50
2023-05-02T13:21:34.712Z,11.57
2023-05-02T13:24:06.367Z,12.30
2023-05-02T13:26:35.760Z,10.60
2023-05-02T13:29:02.977Z,11.70
2023-05-02T13:31:32.232Z,13.52
2023-05-02T13:34:04.300Z,12.32
2023-05-02T13:36:37.948Z,12.48
2023-05-02T13:39:08.406Z,12.25
2023-05-02T13:41:37.849Z,14.88
2023-05-02T13:44:12.075Z,12.27
2023-05-02T13:46:42.772Z,13.43
2023-05-02T13:49:10.057Z,11.98
2023-05-02T14:02:44.581Z,11.93
2023-05-02T14:05:33.402Z,12.40
2023-05-02T14:14:00.058Z,12.02
2023-05-02T14:16:34.980Z,13.00
2023-05-02T14:19:21.169Z,14.48
2023-05-02T14:22:18.375Z,14.27
2023-05-02T14:27:41.653Z,14.73
2023-05-02T14:30:14.398Z,13.98
2023-05-02T14:35:48.252Z,12.82
2023-05-02T14:38:22.890Z,13.13
2023-05-02T14:49:06.765Z,17.03
2023-05-02T14:51:38.995Z,12.43
2023-05-02T14:59:52.369Z,14.30
2023-05-02T15:05:14.964Z,13.27
2023-05-02T15:22:18.672Z,12.73
2023-05-02T15:30:51.959Z,14.45
2023-05-02T15:33:31.597Z,13.93
2023-05-02T15:36:01.156Z,14.50
2023-05-02T15:41:19.738Z,14.27
2023-05-02T15:43:51.960Z,14.88
2023-05-02T15:46:26.312Z,15.50
2023-05-02T15:51:45.089Z,14.13
2023-05-02T15:56:54.453Z,14.40
2023-05-02T15:59:32.185Z,14.90
2023-05-02T16:02:10.829Z,15.35
2023-05-02T16:04:45.194Z,16.20
2023-05-02T16:07:23.425Z,14.68
2023-05-02T16:10:13.775Z,16.88
2023-05-02T16:12:53.606Z,15.95
2023-05-02T16:18:18.817Z,18.13
2023-05-02T16:20:49.777Z,17.27
2023-05-02T16:23:30.713Z,22.58
2023-05-02T16:26:03.069Z,17.80
2023-05-02T16:28:30.562Z,16.60
2023-05-02T16:31:00.959Z,20.25
2023-05-02T16:33:31.300Z,17.67
2023-05-02T16:36:08.672Z,16.55
2023-05-02T16:38:42.930Z,19.67
2023-05-02T16:41:14.080Z,17.45
2023-05-02T16:43:48.935Z,18.10
2023-05-02T16:46:18.726Z,19.67
2023-05-02T16:48:49.273Z,20.10
2023-05-02T16:51:18.678Z,16.15
2023-05-02T16:53:48.970Z,18.92
2023-05-02T17:31:36.414Z,16.95
2023-05-02T18:01:14.406Z,16.38
2023-05-02T18:03:45.174Z,14.77
2023-05-02T18:06:17.420Z,15.00
2023-05-02T18:08:45.331Z,17.88
2023-05-02T18:11:27.706Z,16.38
2023-05-02T18:19:36.269Z,15.07
2023-05-02T18:22:04.780Z,16.40
2023-05-02T18:27:27.690Z,16.75
2023-05-02T18:30:26.956Z,16.42
2023-05-02T18:48:04.214Z,13.88
2023-05-02T18:53:26.015Z,14.63
2023-05-02T18:59:02.582Z,14.15
2023-05-02T19:04:51.888Z,13.27
2023-05-02T19:22:40.005Z,18.45
2023-05-02T19:33:59.313Z,19.45
2023-05-02T20:21:30.263Z,17.23
2023-05-02T20:35:22.069Z,22.25
2023-05-02T20:43:42.983Z,18.83
2023-05-02T20:54:41.104Z,19.55
2023-05-02T22:05:29.269Z,18.38
2023-05-02T22:07:59.530Z,17.35
2023-05-02T22:10:38.127Z,18.13
2023-05-02T22:13:26.607Z,17.75
2023-05-02T22:15:54.263Z,16.05
2023-05-02T22:18:31.679Z,15.88
2023-05-02T22:21:02.494Z,15.73
2023-05-02T22:23:34.465Z,18.02
2023-05-02T22:26:02.682Z,17.13
2023-05-02T22:28:31.621Z,14.55
2023-05-02T22:31:04.764Z,16.90
2023-05-02T22:33:32.061Z,18.83
2023-05-02T22:35:59.493Z,16.13
2023-05-02T22:38:30.797Z,16.58
2023-05-02T22:40:58.930Z,18.55
2023-05-02T22:43:25.761Z,16.02
2023-05-02T22:46:02.759Z,14.93
2023-05-02T22:48:30.112Z,13.95
2023-05-02T22:51:04.933Z,14.80
2023-05-02T22:53:35.291Z,17.67
2023-05-02T22:56:06.684Z,16.80
2023-05-02T22:58:37.580Z,13.18
2023-05-02T23:01:04.517Z,14.07
2023-05-02T23:03:40.558Z,12.48
2023-05-02T23:06:08.637Z,14.82
2023-05-02T23:08:38.036Z,16.70
2023-05-02T23:13:48.679Z,14.57
2023-05-02T23:19:04.713Z,12.98
2023-05-02T23:21:34.901Z,15.00
2023-05-02T23:24:02.098Z,13.38
2023-05-02T23:26:31.680Z,13.70
2023-05-02T23:29:02.598Z,14.27
2023-05-02T23:31:31.797Z,17.65
2023-05-02T23:33:59.391Z,16.88
2023-05-02T23:36:39.401Z,17.35
2023-05-02T23:39:06.400Z,17.98
2023-05-02T23:41:34.631Z,16.40
2023-05-02T23:44:05.269Z,16.52
2023-05-02T23:46:44.374Z,17.45
2023-05-02T23:49:11.259Z,15.68
2023-05-02T23:51:39.073Z,15.57
2023-05-02T23:54:08.117Z,16.30
2023-05-02T23:56:36.258Z,20.33
2023-05-02T23:59:11.960Z,20.60
